Latest Coastal Weather Observations for Cerberus

IDV60701

Issued at 7:25 am EDT Tuesday 25 November 2014 (issued every 10 minutes, with the page automatically refreshed every 10 minutes)

About coastal observations | Map of coastal stations | Coastal observations for VIC | Marine services | Other Formats
Station Details ID: 086361 Name: CERBERUS Lat: -38.36 Lon: 145.18 Height: 12.69 m
Data from the previous 72 hours. | See also: Recent months at Cerberus
Date/Time
EDT
Temp

°C
Wind Pressure Rain
since 9am
mm
Weather Cloud Vis
km
Sea
Height
m
Swell
Dir
 
Speed
knots
Gust
knots
hPa Trend Height
m
Period
s
Dir
25/07:00am 12.6 WNW 10 15 1015.4 - 17.8 - - - - - - -
25/06:30am 11.9 WNW 11 16 1015.0 - 17.8 - - - - - - -
25/06:00am 11.5 WNW 11 17 1014.4 - 17.8 - - - - - - -
25/05:30am 11.5 WNW 8 16 1014.3 - 17.8 - - - - - - -
25/05:00am 11.6 WNW 11 16 1013.8 - 17.8 - - - - - - -
25/04:30am 11.6 WNW 10 17 1013.6 - 17.8 - - - - - - -
25/04:00am 11.7 WNW 11 17 1013.4 - 17.8 - - - - - - -
25/03:30am 11.9 WNW 10 15 1013.3 - 17.8 - - - - - - -
25/03:00am 12.0 W 10 16 1013.4 - 17.8 - - - - - - -
25/02:30am 12.0 WNW 7 11 1013.5 - 17.8 - - - - - - -
25/02:00am 12.2 WNW 7 12 1013.2 - 17.8 - - - - - - -
25/01:30am 12.2 WNW 6 9 1013.2 - 17.8 - - - - - - -
25/01:00am 12.3 WNW 7 10 1013.2 - 17.8 - - - - - - -
25/12:30am 12.0 W 5 8 1013.2 - 17.8 - - - - - - -
25/12:00am 12.1 W 4 10 1013.1 - 17.8 - - - - - - -
 
Date/Time
EDT
Temp

°C
Wind Pressure Rain
since 9am
mm
Weather Cloud Vis
km
Sea
Height
m
Swell
Dir
 
Speed
knots
Gust
knots
hPa Trend Height
m
Period
s
Dir
24/11:30pm 12.7 WSW 5 12 1013.0 - 17.8 - - - - - - -
24/11:00pm 12.7 W 5 7 1012.7 - 17.8 - - - - - - -
24/10:30pm 13.0 W 5 8 1012.8 - 17.8 - - - - - - -
24/10:00pm 13.4 W 6 10 1012.5 - 17.8 - - - - - - -
24/09:30pm 13.4 W 5 8 1011.9 - 17.8 - - - - - - -
24/09:00pm 13.8 W 5 8 1011.6 - 17.8 - - - - - - -
24/08:30pm 14.0 WSW 8 12 1011.2 - 17.8 - - - - - - -
24/08:00pm 14.1 WSW 9 15 1010.8 - 17.8 - - - - - - -
24/07:30pm 14.2 WSW 10 19 1010.1 - 17.8 - - - - - - -
24/07:00pm 14.5 SW 12 20 1009.3 - 17.8 - - - - - - -
24/06:30pm 15.2 SW 13 22 1008.5 - 17.8 - - - - - - -
24/06:00pm 16.2 SW 13 24 1007.6 - 17.8 - - - - - - -
24/05:30pm 16.3 SW 15 23 1006.9 - 17.8 - - - - - - -
24/05:00pm 16.6 SW 11 17 1006.6 - 17.8 - - - - - - -
24/04:30pm 16.8 WSW 8 12 1006.2 - 17.8 - - - - - - -
24/04:00pm 17.1 W 8 11 1006.2 - 17.8 - - - - - - -
24/03:30pm 17.4 W 5 9 1006.1 - 17.0 - - - - - - -
24/03:00pm 17.2 W 2 3 1005.8 - 15.4 Recent precip. - - - - - -
24/02:30pm 17.0 W 2 3 1006.4 - 12.8 - - - - - - -
24/02:00pm 16.9 N 3 6 1007.2 - 9.2 - - - - - - -
24/01:30pm 16.9 NNE 4 7 1006.5 - 9.0 - - - - - - -
24/01:00pm 17.0 ENE 4 8 1006.6 - 7.8 - - - - - - -
24/12:30pm 16.2 NE 5 10 1007.9 - 7.4 - - - - - - -
24/12:25pm 16.2 NE 5 10 1007.6 - 7.0 - - - - - - -
24/12:00pm 16.2 N 3 6 1009.7 - 4.4 Rain - - - - - -
24/11:30am 16.2 NNE 3 6 1008.8 - 3.2 - - - - - - -
24/11:00am 16.1 NE 4 8 1009.5 - 1.8 - - - - - - -
24/10:30am 16.3 CALM 0 3 1009.5 - 1.6 - - - - - - -
24/10:00am 15.8 WSW 2 4 1009.2 - 1.0 - - - - - - -
24/09:30am 15.4 SW 5 9 1009.5 - 0.8 - - - - - - -
24/09:00am 15.3 SSW 6 11 1009.2 - 2.4 Rain - - - - - -
24/08:30am 15.1 WSW 12 19 1010.9 - 0.0 - - - - - - -
24/08:21am 15.8 NW 4 8 1009.5 - 0.0 - - - - - - -
24/08:00am 16.1 NE 5 8 1007.5 - 0.0 - - - - - - -
24/07:30am 15.6 NE 4 6 1007.8 - 0.0 - - - - - - -
24/07:00am 15.2 NE 3 5 1008.0 - 0.0 - - - - - - -
24/06:30am 15.1 NNE 3 6 1008.1 - 0.0 - - - - - - -
24/06:00am 14.5 NNE 3 6 1008.4 - 0.0 - - - - - - -
24/05:30am 12.9 S 2 4 1008.1 - 0.0 - - - - - - -
24/05:00am 12.4 S 1 2 1008.3 - 0.0 - - - - - - -
24/04:30am 12.0 S 1 2 1008.9 - 0.0 - - - - - - -
24/04:00am 12.1 CALM 0 0 1009.1 - 0.0 - - - - - - -
24/03:30am 11.4 CALM 0 0 1009.7 - 0.0 - - - - - - -
24/03:00am 11.7 CALM 0 2 1010.1 - 0.0 - - - - - - -
24/02:30am 11.4 S 2 3 1010.3 - 0.0 - - - - - - -
24/02:00am 12.2 CALM 0 0 1010.8 - 0.0 - - - - - - -
24/01:30am 12.7 CALM 0 2 1011.6 - 0.0 - - - - - - -
24/01:00am 13.5 S 1 1 1012.0 - 0.0 - - - - - - -
24/12:30am 13.9 S 2 2 1012.3 - 0.0 - - - - - - -
24/12:00am 14.4 S 1 2 1012.7 - 0.0 - - - - - - -
 
Date/Time
EDT
Temp

°C
Wind Pressure Rain
since 9am
mm
Weather Cloud Vis
km
Sea
Height
m
Swell
Dir
 
Speed
knots
Gust
knots
hPa Trend Height
m
Period
s
Dir
23/11:30pm 14.2 S 2 3 1013.3 - 0.0 - - - - - - -
23/11:00pm 14.1 S 1 2 1013.4 - 0.0 - - - - - - -
23/10:30pm 14.6 S 2 2 1013.9 - 0.0 - - - - - - -
23/10:00pm 14.3 S 1 3 1013.8 - 0.0 - - - - - - -
23/09:30pm 14.9 SSE 3 4 1013.7 - 0.0 - - - - - - -
23/09:00pm 15.3 SE 3 4 1013.7 - 0.0 - - - - - - -
23/08:30pm 15.5 SE 2 3 1013.8 - 0.0 - - - - - - -
23/08:00pm 16.1 SE 4 5 1013.5 - 0.0 - - - - - - -
23/07:30pm 16.4 SSE 4 6 1013.5 - 0.0 - - - - - - -
23/07:00pm 16.6 SSE 5 8 1013.4 - 0.0 - - - - - - -
23/06:30pm 16.9 SSE 5 8 1013.1 - 0.0 - - - - - - -
23/06:00pm 17.4 SSE 6 9 1013.0 - 0.0 - - - - - - -
23/05:30pm 17.8 SSE 6 9 1013.1 - 0.0 - - - - - - -
23/05:00pm 18.3 SSE 7 11 1012.5 - 0.0 - - - - - - -
23/04:30pm 18.6 S 9 13 1012.0 - 0.0 - - - - - - -
23/04:00pm 18.3 S 10 13 1011.9 - 0.0 - - - - - - -
23/03:30pm 19.4 S 9 12 1011.9 - 0.0 - - - - - - -
23/03:00pm 19.4 S 9 14 1011.9 - 0.0 - - - - - - -
23/02:30pm 19.5 SSW 9 14 1011.8 - 0.0 - - - - - - -
23/02:00pm 19.9 SSW 8 12 1011.8 - 0.0 - - - - - - -
23/01:30pm 19.5 S 9 13 1011.8 - 0.0 - - - - - - -
23/01:00pm 18.8 SSW 9 12 1012.0 - 0.0 - - - - - - -
23/12:30pm 19.2 SSW 8 12 1012.0 - 0.0 - - - - - - -
23/12:00pm 19.1 SSW 8 12 1012.1 - 0.0 - - - - - - -
23/11:30am 19.3 SSW 6 11 1012.2 - 0.0 - - - - - - -
23/11:00am 18.6 S 7 10 1012.4 - 0.0 - - - - - - -
23/10:30am 19.0 S 6 8 1012.6 - 0.0 - - - - - - -
23/10:00am 18.5 S 4 6 1012.6 - 0.0 - - - - - - -
23/09:30am 17.9 SSW 5 8 1012.8 - 0.0 - - - - - - -
23/09:00am 17.4 SW 5 6 1012.8 - 0.2 - - - - - - -
23/08:30am 17.3 SSW 5 7 1012.6 - 0.2 - - - - - - -
23/08:00am 17.1 SW 4 6 1012.4 - 0.2 - - - - - - -
23/07:30am 16.4 WSW 3 5 1012.1 - 0.2 - - - - - - -
23/07:00am 15.7 WSW 2 3 1011.9 - 0.2 - - - - - - -
23/06:30am 15.2 WSW 1 2 1011.6 - 0.2 - - - - - - -
23/06:00am 15.5 WSW 1 3 1011.4 - 0.2 - - - - - - -
23/05:30am 15.6 CALM 0 1 1011.1 - 0.2 - - - - - - -
23/05:00am 15.8 WSW 2 4 1010.9 - 0.2 - - - - - - -
23/04:30am 16.0 WSW 2 3 1010.5 - 0.2 - - - - - - -
23/04:00am 16.0 WSW 2 3 1010.1 - 0.2 - - - - - - -
23/03:30am 16.1 WSW 3 6 1009.9 - 0.2 - - - - - - -
23/03:00am 15.8 W 3 5 1009.8 - 0.2 - - - - - - -
23/02:30am 15.4 W 2 5 1009.7 - 0.2 - - - - - - -
23/02:00am 14.9 CALM 0 0 1009.5 - 0.2 - - - - - - -
23/01:30am 15.4 WNW 3 4 1009.5 - 0.2 - - - - - - -
23/01:00am 16.1 WNW 2 3 1009.4 - 0.2 - - - - - - -
23/12:30am 16.7 WNW 3 5 1009.1 - 0.2 - - - - - - -
23/12:00am 16.3 SW 2 4 1008.7 - 0.2 - - - - - - -
 
Date/Time
EDT
Temp

°C
Wind Pressure Rain
since 9am
mm
Weather Cloud Vis
km
Sea
Height
m
Swell
Dir
 
Speed
knots
Gust
knots
hPa Trend Height
m
Period
s
Dir
22/11:30pm 17.1 SSW 1 3 1008.5 - 0.2 - - - - - - -
22/11:00pm 17.7 SW 2 5 1008.4 - 0.2 - - - - - - -
22/10:30pm 18.3 SW 4 9 1008.0 - 0.2 - - - - - - -
22/10:00pm 19.2 SW 6 9 1007.4 - 0.2 - - - - - - -
22/09:30pm 19.1 WSW 4 7 1006.9 - 0.2 - - - - - - -
22/09:00pm 20.2 WSW 7 13 1006.3 - 0.2 - - - - - - -
22/08:30pm 20.9 SW 2 3 1005.4 - 0.2 - - - - - - -
22/08:00pm 21.5 WSW 14 27 1006.4 - 0.2 - - - - - - -
22/07:55pm 24.6 WSW 14 27 1006.6 - 0.2 - - - - - - -
22/07:30pm 27.9 NNW 9 17 1004.6 - 0.2 - - - - - - -
22/07:00pm 28.9 N 10 20 1003.6 - 0.2 - - - - - - -
22/06:30pm 29.2 N 8 14 1003.6 - 0.2 - - - - - - -
22/06:00pm 29.6 NNW 10 20 1004.3 - 0.2 - - - - - - -
22/05:30pm 30.3 N 8 13 1004.6 - 0.2 - - - - - - -
22/05:00pm 29.3 N 8 14 1004.9 - 0.2 - - - - - - -
22/04:30pm 28.8 N 8 13 1005.2 - 0.2 - - - - - - -
22/04:00pm 27.9 N 12 20 1005.9 - 0.2 - - - - - - -
22/03:30pm 28.7 NNW 11 19 1006.4 - 0.2 - - - - - - -
22/03:00pm 28.8 NNW 11 20 1006.6 - 0.2 - - - - - - -
22/02:30pm 27.8 N 8 15 1006.8 - 0.2 - - - - - - -
22/02:00pm 27.6 NNW 8 15 1007.3 - 0.2 - - - - - - -
22/01:30pm 26.8 N 9 17 1007.6 - 0.0 - - - - - - -
22/01:00pm 25.3 N 7 12 1007.7 - 0.0 - - - - - - -
22/12:30pm 24.3 N 11 20 1008.2 - 0.0 - - - - - - -
22/12:00pm 22.4 NNE 5 8 1009.2 - 0.0 - - - - - - -
22/11:30am 19.4 NNE 3 4 1009.9 - 0.0 - - - - - - -
22/11:00am 19.3 NNE 4 6 1009.9 - 0.0 - - - - - - -
22/10:30am 17.9 NNE 5 7 1010.0 - 0.0 - - - - - - -
22/10:00am 16.9 NNE 4 5 1010.4 - 0.0 - - - - - - -
22/09:30am 16.0 NNE 1 3 1010.8 - 0.0 - - - - - - -
22/09:00am 15.2 NNE 4 7 1011.0 - 0.0 - - - - - - -
22/08:30am 15.2 NNE 3 5 1011.2 - 0.0 - - - - - - -
22/08:00am 14.9 NNE 3 7 1010.6 - 0.0 - - - - - - -
22/07:30am 13.3 NNE 3 5 1010.4 - 0.0 - - - - - - -

Other Formats:

Comma delimited format used in spreadsheet applications
http://www.bom.gov.au/fwo/IDV60701/IDV60701.94898.axf

JavaScript Object Notation format (JSON) in row-major order
http://www.bom.gov.au/fwo/IDV60701/IDV60701.94898.json